Time;durP1;ratioP1;P1;durP2;ratioP2;P2;SDS_P1;SDS_P2;PMS_P1;PMS_P2;Temp;Humidity;BMP_temperature;BMP_pressure;BME280_temperature;BME280_humidity;BME280_pressure;Samples;Min_cycle;Max_cycle;Signal;HPM_P1;HPM_P2
2023/07/05 04:31:36;;;;;;;6.95;1.67;;;13.20;82.10;;;;;;5331227;23;20052;-74
2023/07/05 04:34:01;;;;;;;4.57;1.65;;;13.30;82.10;;;;;;4935180;29;20028;-74
2023/07/05 04:36:27;;;;;;;3.55;1.10;;;13.30;81.90;;;;;;4912145;29;20111;-76
2023/07/05 04:38:54;;;;;;;9.18;1.70;;;13.30;81.90;;;;;;4900482;29;20460;-73
2023/07/05 04:41:19;;;;;;;5.13;1.52;;;13.30;81.90;;;;;;4917849;29;20020;-73
2023/07/05 04:43:45;;;;;;;6.50;1.38;;;13.30;82.10;;;;;;4900491;29;20043;-74
2023/07/05 04:46:11;;;;;;;4.22;1.48;;;13.20;82.20;;;;;;4916646;29;20064;-73
2023/07/05 04:48:36;;;;;;;7.07;1.50;;;13.30;82.10;;;;;;4917317;29;20035;-74
2023/07/05 04:51:02;;;;;;;5.20;1.42;;;13.30;81.90;;;;;;4922206;29;20028;-73
2023/07/05 04:53:28;;;;;;;5.60;1.48;;;13.40;81.80;;;;;;4934426;29;20039;-74
2023/07/05 04:55:59;;;;;;;7.03;2.00;;;13.30;81.80;;;;;;4926364;29;20024;-81
2023/07/05 04:58:26;;;;;;;5.38;1.60;;;13.40;81.80;;;;;;4915827;29;20127;-82
2023/07/05 05:00:52;;;;;;;3.88;1.60;;;13.30;81.90;;;;;;4910222;29;20034;-82
2023/07/05 05:03:23;;;;;;;4.32;1.30;;;13.30;82.20;;;;;;4920601;29;20106;-81
2023/07/05 05:05:52;;;;;;;7.63;1.40;;;13.40;82.20;;;;;;4922066;29;20048;-81
2023/07/05 05:08:19;;;;;;;8.60;1.63;;;13.40;82.10;;;;;;4943132;29;20035;-80
2023/07/05 05:10:45;;;;;;;7.10;1.70;;;13.50;82.20;;;;;;4954191;29;20121;-81
2023/07/05 05:13:10;;;;;;;8.25;1.58;;;13.50;82.30;;;;;;4922641;29;20035;-79
2023/07/05 05:15:38;;;;;;;6.75;1.70;;;13.40;82.20;;;;;;4923171;29;20028;-79
2023/07/05 05:18:07;;;;;;;6.75;1.67;;;13.50;82.30;;;;;;4907765;29;20056;-79
2023/07/05 05:20:33;;;;;;;3.80;1.67;;;13.50;82.20;;;;;;4938925;29;20050;-80
2023/07/05 05:22:59;;;;;;;3.00;1.40;;;13.60;82.10;;;;;;4920657;29;20028;-82
2023/07/05 05:25:27;;;;;;;6.38;1.70;;;13.60;82.00;;;;;;4920053;29;20035;-79
2023/07/05 05:28:37;;;;;;;;;;;;;;;;;;;;;
2023/07/05 05:31:09;;;;;;;4.68;1.40;;;13.60;82.30;;;;;;4918961;29;20416;-79
2023/07/05 05:33:36;;;;;;;6.53;1.50;;;13.70;82.40;;;;;;4925806;29;20058;-79
2023/07/05 05:36:02;;;;;;;5.10;1.63;;;13.70;82.20;;;;;;4918763;29;20114;-79
2023/07/05 05:38:28;;;;;;;9.43;1.63;;;13.70;82.10;;;;;;4934700;29;20048;-79
2023/07/05 05:41:04;;;;;;;6.10;1.70;;;13.70;82.40;;;;;;4919784;29;20024;-80
2023/07/05 05:43:30;;;;;;;6.32;1.50;;;13.80;82.30;;;;;;4902909;29;20032;-80
2023/07/05 05:45:56;;;;;;;6.80;1.70;;;13.80;82.40;;;;;;4908299;29;20035;-80
2023/07/05 05:48:22;;;;;;;4.85;1.70;;;13.70;82.50;;;;;;4916986;29;20032;-80
2023/07/05 05:50:48;;;;;;;4.97;1.58;;;13.80;82.50;;;;;;4919712;29;20032;-80
2023/07/05 05:53:14;;;;;;;6.07;1.77;;;13.80;82.30;;;;;;4902543;29;20036;-78
2023/07/05 05:55:40;;;;;;;6.18;1.55;;;13.90;82.30;;;;;;4919241;29;20111;-78
2023/07/05 05:58:07;;;;;;;6.13;1.98;;;14.00;82.30;;;;;;4919992;29;20032;-79
2023/07/05 06:00:33;;;;;;;5.65;1.90;;;14.00;82.50;;;;;;4902806;29;20028;-79
2023/07/05 06:02:59;;;;;;;7.80;2.20;;;14.10;82.30;;;;;;4902407;29;20039;-78
2023/07/05 06:05:25;;;;;;;6.68;2.20;;;14.10;82.10;;;;;;4918274;29;20028;-78
2023/07/05 06:07:52;;;;;;;8.32;1.65;;;14.20;82.30;;;;;;4938984;29;20031;-78
2023/07/05 06:10:18;;;;;;;3.78;1.63;;;14.20;82.00;;;;;;4909580;29;20023;-78
2023/07/05 06:12:43;;;;;;;7.78;1.95;;;14.20;82.20;;;;;;4930499;29;20043;-78
2023/07/05 06:15:13;;;;;;;7.18;2.13;;;14.20;82.30;;;;;;4903118;29;20032;-78
2023/07/05 06:17:39;;;;;;;8.80;1.70;;;14.20;82.20;;;;;;4919307;29;20029;-78
2023/07/05 06:20:06;;;;;;;7.13;1.50;;;14.30;81.90;;;;;;4919196;29;20024;-79
2023/07/05 06:22:33;;;;;;;6.40;1.40;;;14.30;82.00;;;;;;4908806;29;20106;-79
2023/07/05 06:24:59;;;;;;;6.40;1.70;;;14.40;82.00;;;;;;4920954;29;20034;-79
2023/07/05 06:27:25;;;;;;;6.03;1.52;;;14.40;82.00;;;;;;4937780;29;20031;-79
2023/07/05 06:29:51;;;;;;;9.18;2.10;;;14.40;81.80;;;;;;4927145;29;20043;-78
2023/07/05 06:32:16;;;;;;;6.18;1.80;;;14.50;82.10;;;;;;4912869;29;20054;-79
2023/07/05 06:34:42;;;;;;;7.45;1.92;;;14.60;81.90;;;;;;4934853;29;20032;-78
2023/07/05 06:37:08;;;;;;;7.60;1.95;;;14.60;81.70;;;;;;4903714;29;20028;-78
2023/07/05 06:39:33;;;;;;;5.53;1.75;;;14.70;81.80;;;;;;4922585;29;20051;-79
2023/07/05 06:41:59;;;;;;;6.72;2.20;;;14.70;81.90;;;;;;4923286;29;20060;-78
2023/07/05 06:44:25;;;;;;;5.93;1.67;;;14.80;81.70;;;;;;4921551;29;20052;-78
2023/07/05 06:46:51;;;;;;;5.60;1.70;;;14.80;81.50;;;;;;4905862;29;20822;-78
2023/07/05 06:49:16;;;;;;;4.75;2.20;;;14.90;81.30;;;;;;4924800;29;20043;-78
2023/07/05 06:51:42;;;;;;;9.52;1.65;;;14.90;81.30;;;;;;4923755;29;20421;-79
2023/07/05 06:54:08;;;;;;;7.35;2.35;;;14.90;80.60;;;;;;4933087;29;20032;-78
2023/07/05 06:56:35;;;;;;;14.27;2.30;;;15.00;81.10;;;;;;4933356;29;20555;-78
2023/07/05 06:59:00;;;;;;;6.63;1.95;;;15.00;80.50;;;;;;4914074;29;20110;-79
2023/07/05 07:01:26;;;;;;;8.18;1.92;;;15.10;80.50;;;;;;4931973;29;20470;-79
2023/07/05 07:03:52;;;;;;;5.82;1.70;;;15.10;80.90;;;;;;4929873;29;20035;-79
2023/07/05 07:06:17;;;;;;;6.97;1.90;;;15.20;80.80;;;;;;4917305;29;20035;-78
2023/07/05 07:08:54;;;;;;;4.18;1.58;;;15.30;80.50;;;;;;4915883;29;20043;-79
2023/07/05 07:11:20;;;;;;;7.93;1.55;;;15.40;80.50;;;;;;4914138;29;20493;-80
2023/07/05 07:13:46;;;;;;;7.80;2.03;;;15.50;80.20;;;;;;4917758;29;20367;-79
2023/07/05 07:16:16;;;;;;;8.07;2.13;;;15.60;80.20;;;;;;4916455;29;20032;-81
2023/07/05 07:18:45;;;;;;;5.22;2.05;;;15.70;79.90;;;;;;4911417;29;20958;-78
2023/07/05 07:21:12;;;;;;;7.60;1.85;;;15.80;79.70;;;;;;4914076;29;20031;-78
2023/07/05 07:23:41;;;;;;;6.13;1.73;;;15.80;79.70;;;;;;4929631;29;20032;-80
2023/07/05 07:26:18;;;;;;;6.78;1.73;;;15.90;78.90;;;;;;4926098;29;20120;-80
2023/07/05 07:28:50;;;;;;;4.45;1.95;;;16.00;78.90;;;;;;4937081;29;20035;-79
2023/07/05 07:31:25;;;;;;;8.43;2.47;;;16.10;78.70;;;;;;4933004;29;20084;-79
2023/07/05 07:33:51;;;;;;;7.20;2.13;;;16.30;78.30;;;;;;4933494;29;20027;-80
2023/07/05 07:36:26;;;;;;;4.15;1.65;;;16.40;77.50;;;;;;4932221;29;20032;-79
2023/07/05 07:38:52;;;;;;;8.38;1.90;;;16.80;76.60;;;;;;4916181;29;20019;-80
2023/07/05 07:41:22;;;;;;;9.68;2.28;;;17.30;75.20;;;;;;4932057;29;20546;-79
2023/07/05 07:43:52;;;;;;;9.25;2.22;;;18.00;73.90;;;;;;4932759;29;20053;-80
2023/07/05 07:46:25;;;;;;;5.75;1.83;;;18.90;70.80;;;;;;4915237;29;20075;-79
2023/07/05 07:48:53;;;;;;;8.70;2.03;;;20.00;68.40;;;;;;4931068;29;20028;-80
2023/07/05 07:51:21;;;;;;;6.45;1.90;;;20.80;65.40;;;;;;4930305;29;20116;-80
2023/07/05 07:54:24;;;;;;;6.57;1.92;;;23.30;58.70;;;;;;4935373;29;20023;-83
2023/07/05 07:57:02;;;;;;;6.13;2.13;;;25.90;50.60;;;;;;4904439;29;20040;-86
2023/07/05 08:28:26;;;;;;;6.88;2.15;;;34.10;32.10;;;;;;5099341;23;20063;-80
2023/07/05 09:04:10;;;;;;;;;;;;;;;;;;;;;
2023/07/05 09:21:24;;;;;;;;;;;;;;;;;;;;;
2023/07/05 09:24:54;;;;;;;;;;;;;;;;;;;;;
2023/07/05 09:27:50;;;;;;;7.03;2.00;;;28.50;39.50;;;;;;4716067;30;20140;-79
2023/07/05 09:30:29;;;;;;;7.13;2.72;;;28.50;39.00;;;;;;4683842;30;20053;-79
2023/07/05 09:33:37;;;;;;;;;;;;;;;;;;;;;
2023/07/05 09:36:24;;;;;;;6.10;2.25;;;29.10;39.30;;;;;;4750203;30;20737;-79
2023/07/05 09:39:31;;;;;;;;;;;;;;;;;;;;;
2023/07/05 09:42:02;;;;;;;5.25;2.70;;;28.30;38.50;;;;;;4858357;29;20042;-78
2023/07/05 09:45:04;;;;;;;;;;;;;;;;;;;;;
2023/07/05 10:11:59;;;;;;;;;;;;;;;;;;;;;
2023/07/05 10:25:25;;;;;;;3.95;1.83;;;26.90;42.10;;;;;;4712994;30;20045;-80
2023/07/05 10:28:19;;;;;;;5.35;2.00;;;26.60;41.60;;;;;;4693693;30;20568;-80
2023/07/05 10:37:40;;;;;;;;;;;;;;;;;;;;;
2023/07/05 10:40:26;;;;;;;6.57;2.15;;;25.30;45.00;;;;;;4780901;30;20480;-80
2023/07/05 10:43:30;;;;;;;;;;;;;;;;;;;;;
2023/07/05 10:46:05;;;;;;;8.73;2.55;;;25.30;43.80;;;;;;4855459;29;20036;-79
2023/07/05 10:56:16;;;;;;;;;;;;;;;;;;;;;
2023/07/05 10:59:42;;;;;;;;;;;;;;;;;;;;;
2023/07/05 11:16:29;;;;;;;6.55;2.50;;;25.50;45.50;;;;;;5376988;23;20060;-79
2023/07/05 11:21:52;;;;;;;5.22;2.63;;;25.70;45.50;;;;;;4900195;29;20032;-81
2023/07/05 11:24:36;;;;;;;7.03;2.72;;;25.60;44.60;;;;;;4894099;29;20047;-79
2023/07/05 11:31:06;;;;;;;5.32;2.58;;;25.60;43.60;;;;;;4911902;29;20048;-84
2023/07/05 11:34:22;;;;;;;;;;;;;;;;;;;;;
2023/07/05 11:37:13;;;;;;;7.07;2.45;;;25.30;44.20;;;;;;4837978;29;20037;-80
2023/07/05 11:39:43;;;;;;;6.43;2.40;;;25.10;44.40;;;;;;4882423;29;20035;-81
2023/07/05 11:42:14;;;;;;;7.05;2.80;;;24.90;45.50;;;;;;4880874;29;20067;-80
2023/07/05 11:44:41;;;;;;;5.97;2.65;;;24.50;45.90;;;;;;4881377;29;20033;-82
2023/07/05 11:47:28;;;;;;;7.97;2.47;;;24.20;45.30;;;;;;4880256;29;20040;-83
2023/07/05 11:50:08;;;;;;;5.10;2.33;;;24.40;46.30;;;;;;4878858;29;20112;-82
2023/07/05 11:52:37;;;;;;;5.30;2.60;;;24.60;46.00;;;;;;4878902;29;20037;-79
2023/07/05 11:55:10;;;;;;;5.28;2.45;;;24.60;45.90;;;;;;4862742;29;20064;-79
2023/07/05 11:57:54;;;;;;;6.82;2.20;;;24.70;45.40;;;;;;4880113;29;20033;-78
2023/07/05 12:00:45;;;;;;;5.30;2.50;;;25.00;44.70;;;;;;4881025;29;20033;-80
2023/07/05 12:03:15;;;;;;;5.65;2.47;;;24.90;45.30;;;;;;4871136;29;20125;-79
2023/07/05 12:05:43;;;;;;;5.47;2.58;;;24.80;44.20;;;;;;4909241;29;20040;-77
2023/07/05 12:08:16;;;;;;;6.05;2.10;;;24.90;44.60;;;;;;4912299;29;20052;-84
2023/07/05 12:10:54;;;;;;;7.07;2.50;;;24.80;42.40;;;;;;4892426;29;20387;-79
2023/07/05 12:13:26;;;;;;;7.13;2.40;;;24.80;43.80;;;;;;4912185;29;20035;-84
2023/07/05 12:15:55;;;;;;;4.60;2.47;;;24.50;43.30;;;;;;4905438;29;20060;-84
2023/07/05 12:18:22;;;;;;;7.15;2.50;;;24.30;43.70;;;;;;4896139;29;20024;-87
2023/07/05 12:20:52;;;;;;;6.57;2.50;;;23.90;43.00;;;;;;4912583;29;20078;-89
2023/07/05 12:23:19;;;;;;;6.93;2.80;;;23.70;44.40;;;;;;4893672;29;20039;-87
2023/07/05 12:25:50;;;;;;;5.40;2.30;;;23.70;45.70;;;;;;4912494;29;20095;-86
2023/07/05 12:28:23;;;;;;;7.13;2.70;;;23.80;46.40;;;;;;4896510;29;20032;-87
2023/07/05 12:30:49;;;;;;;7.75;2.70;;;23.90;46.00;;;;;;4894072;29;20029;-87
2023/07/05 12:33:27;;;;;;;5.90;2.45;;;24.10;46.20;;;;;;4894517;29;20060;-88
2023/07/05 12:36:16;;;;;;;6.15;2.35;;;24.30;44.70;;;;;;4908624;29;20107;-87
2023/07/05 12:38:44;;;;;;;5.43;2.45;;;24.40;45.00;;;;;;4912336;29;20020;-87
2023/07/05 12:41:23;;;;;;;7.00;2.45;;;24.40;45.20;;;;;;4891603;29;20043;-87
2023/07/05 12:43:57;;;;;;;5.80;2.55;;;24.30;44.00;;;;;;4912776;29;20056;-87
2023/07/05 12:46:25;;;;;;;6.07;2.55;;;24.10;44.00;;;;;;4913666;29;20491;-87
2023/07/05 12:48:52;;;;;;;4.93;2.38;;;24.00;44.80;;;;;;4911513;29;20032;-87
2023/07/05 12:51:21;;;;;;;6.90;2.58;;;23.80;45.70;;;;;;4907233;29;20040;-87
2023/07/05 12:53:56;;;;;;;7.85;2.70;;;23.60;46.80;;;;;;4898983;29;20024;-87
2023/07/05 12:56:31;;;;;;;5.95;2.55;;;23.30;46.50;;;;;;4911225;29;20036;-87
2023/07/05 12:59:05;;;;;;;6.65;2.78;;;22.90;48.40;;;;;;4889116;29;20052;-86
2023/07/05 13:01:37;;;;;;;6.85;2.20;;;22.60;51.10;;;;;;4899480;29;20062;-87
2023/07/05 13:04:12;;;;;;;7.82;3.13;;;22.30;53.50;;;;;;4912130;29;20063;-88
2023/07/05 13:06:38;;;;;;;6.70;2.47;;;22.10;56.30;;;;;;4913229;29;20121;-87
2023/07/05 13:09:07;;;;;;;11.88;3.53;;;22.10;58.40;;;;;;4916643;29;20028;-87
2023/07/05 13:11:33;;;;;;;7.80;2.75;;;21.90;59.80;;;;;;4899033;29;20028;-87
2023/07/05 13:14:04;;;;;;;5.82;2.75;;;22.10;59.60;;;;;;4917391;29;20104;-86
2023/07/05 13:16:52;;;;;;;5.25;2.47;;;22.40;60.00;;;;;;4913887;29;20082;-87
2023/07/05 13:19:18;;;;;;;6.45;2.60;;;22.70;59.30;;;;;;4900938;29;20031;-87
2023/07/05 13:21:49;;;;;;;6.75;2.80;;;22.80;60.10;;;;;;4911813;29;20024;-87
2023/07/05 13:24:33;;;;;;;7.55;3.28;;;22.80;59.70;;;;;;4892970;29;20032;-85
2023/07/05 13:27:00;;;;;;;6.63;2.75;;;23.00;59.30;;;;;;4904837;29;20082;-86
2023/07/05 13:29:30;;;;;;;7.47;2.88;;;23.20;58.80;;;;;;4890930;29;20056;-83
2023/07/05 13:31:56;;;;;;;6.15;2.72;;;23.20;58.50;;;;;;4914682;29;20040;-86
2023/07/05 13:34:24;;;;;;;5.72;2.50;;;23.20;58.60;;;;;;4917179;29;20029;-85
2023/07/05 13:36:53;;;;;;;8.82;2.65;;;23.20;59.20;;;;;;4896813;29;20703;-85
2023/07/05 13:39:20;;;;;;;6.82;2.47;;;23.20;58.00;;;;;;4918069;29;20051;-85
2023/07/05 13:41:46;;;;;;;8.02;2.72;;;23.20;58.20;;;;;;4897934;29;20494;-84
2023/07/05 13:44:17;;;;;;;6.43;2.80;;;23.30;58.70;;;;;;4917639;29;20126;-84
2023/07/05 13:46:44;;;;;;;5.78;2.53;;;23.30;57.80;;;;;;4899921;29;20797;-86
2023/07/05 13:49:10;;;;;;;7.07;2.55;;;23.50;57.50;;;;;;4914963;29;20059;-85
2023/07/05 13:51:42;;;;;;;9.05;2.60;;;23.70;57.00;;;;;;4917197;29;20035;-85
2023/07/05 13:54:11;;;;;;;5.43;2.28;;;23.80;56.60;;;;;;4901558;29;20027;-90
2023/07/05 13:56:36;;;;;;;5.63;2.47;;;23.80;55.50;;;;;;4896835;29;20127;-85
2023/07/05 13:59:03;;;;;;;6.20;2.33;;;24.00;55.00;;;;;;4899836;29;20060;-84
2023/07/05 14:01:31;;;;;;;3.90;2.10;;;24.30;54.40;;;;;;4912348;29;20021;-84
2023/07/05 14:03:58;;;;;;;6.32;2.38;;;24.40;54.40;;;;;;4901578;29;20028;-85
2023/07/05 14:06:26;;;;;;;6.75;2.45;;;24.30;53.40;;;;;;4916264;29;20032;-85
2023/07/05 14:08:52;;;;;;;6.57;2.50;;;23.90;53.00;;;;;;4919576;29;20487;-85
2023/07/05 14:11:27;;;;;;;6.80;2.50;;;23.60;54.00;;;;;;4899341;29;20062;-85
2023/07/05 14:13:54;;;;;;;4.38;2.00;;;23.40;53.60;;;;;;4899905;29;20035;-85
2023/07/05 14:16:20;;;;;;;7.00;2.42;;;23.20;53.30;;;;;;4913496;29;20040;-85
2023/07/05 14:18:47;;;;;;;6.72;2.58;;;23.20;52.70;;;;;;4918216;29;20051;-85
2023/07/05 14:21:18;;;;;;;7.43;2.65;;;23.20;52.80;;;;;;4915223;29;20032;-84
2023/07/05 14:23:45;;;;;;;5.43;2.42;;;23.30;53.20;;;;;;4900574;29;20020;-85
2023/07/05 14:26:11;;;;;;;6.63;2.85;;;23.30;53.30;;;;;;4918026;29;20115;-88
2023/07/05 14:28:36;;;;;;;5.35;2.35;;;23.30;52.50;;;;;;4901923;29;20064;-88
2023/07/05 14:31:03;;;;;;;6.70;2.20;;;23.30;52.10;;;;;;4899089;29;20127;-88
2023/07/05 14:33:29;;;;;;;5.25;2.50;;;23.50;52.10;;;;;;4894589;29;20388;-89
2023/07/05 14:35:55;;;;;;;5.53;2.30;;;23.70;51.70;;;;;;4895508;29;20043;-88
2023/07/05 14:38:22;;;;;;;5.57;2.78;;;23.90;50.60;;;;;;4893078;29;20025;-88
2023/07/05 14:40:49;;;;;;;6.93;2.58;;;24.20;51.60;;;;;;4908408;29;20069;-89
2023/07/05 14:43:15;;;;;;;5.75;2.63;;;24.20;50.10;;;;;;4911262;29;20028;-89
2023/07/05 14:45:43;;;;;;;6.30;2.20;;;24.10;50.00;;;;;;4891969;29;20119;-91
2023/07/05 14:48:10;;;;;;;5.38;2.20;;;24.00;49.60;;;;;;4891284;29;20761;-89
2023/07/05 14:50:36;;;;;;;6.78;2.40;;;24.00;51.10;;;;;;4891513;29;20032;-89
2023/07/05 14:53:20;;;;;;;7.30;2.72;;;24.00;51.80;;;;;;4918716;29;20028;-83
2023/07/05 14:55:47;;;;;;;6.65;2.75;;;24.00;50.80;;;;;;4910551;29;20450;-90
2023/07/05 14:58:15;;;;;;;6.80;2.65;;;23.80;49.90;;;;;;4893150;29;20020;-89
2023/07/05 15:00:44;;;;;;;6.32;2.72;;;23.80;49.90;;;;;;4914696;29;20043;-83
2023/07/05 15:03:26;;;;;;;7.05;2.40;;;23.60;51.50;;;;;;4896970;29;20020;-90
2023/07/05 15:05:52;;;;;;;6.90;2.90;;;23.50;51.60;;;;;;4896295;29;20037;-85
2023/07/05 15:08:18;;;;;;;5.85;2.55;;;23.40;52.40;;;;;;4917604;29;20517;-84
2023/07/05 15:10:43;;;;;;;6.95;2.78;;;23.30;52.10;;;;;;4899177;29;20056;-90
2023/07/05 15:13:10;;;;;;;5.63;2.50;;;23.20;52.10;;;;;;4904238;29;20044;-88
2023/07/05 15:15:38;;;;;;;5.55;2.42;;;23.20;53.00;;;;;;4902973;29;20131;-88
2023/07/05 15:18:04;;;;;;;8.43;2.75;;;23.10;52.60;;;;;;4886615;29;20029;-88
2023/07/05 15:20:34;;;;;;;7.38;2.80;;;23.10;52.00;;;;;;4908523;29;20032;-89
2023/07/05 15:23:00;;;;;;;7.65;2.40;;;23.20;52.30;;;;;;4921565;29;20463;-90
2023/07/05 15:25:26;;;;;;;7.15;2.63;;;23.30;53.30;;;;;;4922446;29;20075;-90
2023/07/05 15:27:53;;;;;;;5.13;2.40;;;23.30;53.30;;;;;;4917868;29;20033;-91
2023/07/05 15:30:20;;;;;;;6.93;2.53;;;23.30;52.40;;;;;;4894384;29;20128;-92
2023/07/05 15:32:46;;;;;;;6.78;2.47;;;23.40;52.10;;;;;;4899203;29;20081;-91
2023/07/05 15:35:15;;;;;;;6.32;2.70;;;23.40;51.10;;;;;;4895825;29;20024;-90
2023/07/05 15:37:41;;;;;;;7.28;2.80;;;23.30;51.80;;;;;;4919757;29;20032;-91
2023/07/05 15:40:07;;;;;;;7.85;2.60;;;23.20;52.80;;;;;;4905545;29;20112;-90
2023/07/05 15:42:34;;;;;;;4.10;2.22;;;23.30;52.10;;;;;;4917200;29;20032;-90
2023/07/05 15:45:00;;;;;;;9.25;2.58;;;23.30;52.80;;;;;;4905720;29;20060;-92
2023/07/05 15:47:30;;;;;;;7.05;2.60;;;23.30;52.40;;;;;;4903962;29;20032;-92
2023/07/05 15:49:56;;;;;;;6.50;2.60;;;23.20;51.80;;;;;;4902073;29;20028;-91
2023/07/05 15:52:22;;;;;;;6.80;2.38;;;23.40;52.00;;;;;;4917856;29;20036;-90
2023/07/05 15:54:48;;;;;;;6.57;2.70;;;23.70;50.90;;;;;;4899072;29;20032;-90
2023/07/05 15:57:14;;;;;;;7.70;2.70;;;24.20;49.90;;;;;;4891756;29;20029;-90
2023/07/05 15:59:46;;;;;;;6.85;2.28;;;24.40;49.30;;;;;;4887053;29;20025;-91
2023/07/05 16:02:15;;;;;;;7.43;2.38;;;24.40;48.70;;;;;;4898099;29;20035;-89
2023/07/05 16:04:46;;;;;;;5.50;2.38;;;24.30;47.80;;;;;;4886413;29;20509;-85
2023/07/05 16:07:12;;;;;;;7.17;2.90;;;24.10;48.80;;;;;;4902426;29;20112;-87
2023/07/05 16:09:38;;;;;;;8.40;2.65;;;24.10;48.80;;;;;;4894352;29;20095;-86
2023/07/05 16:12:04;;;;;;;5.93;2.38;;;24.00;49.10;;;;;;4904880;29;20827;-79
2023/07/05 16:14:30;;;;;;;7.65;2.50;;;23.80;50.10;;;;;;4897141;29;20507;-86
2023/07/05 16:16:56;;;;;;;7.82;2.53;;;23.70;49.90;;;;;;4905654;29;20043;-89
2023/07/05 16:19:22;;;;;;;5.75;2.83;;;23.70;48.70;;;;;;4903333;29;20035;-87
2023/07/05 16:21:59;;;;;;;7.15;2.25;;;23.60;49.60;;;;;;4903079;29;20037;-85
2023/07/05 16:24:25;;;;;;;7.13;2.50;;;23.60;50.20;;;;;;4906073;29;20040;-82
2023/07/05 16:26:50;;;;;;;8.48;2.58;;;23.50;50.70;;;;;;4901885;29;20558;-80
2023/07/05 16:29:17;;;;;;;6.47;2.83;;;23.50;50.30;;;;;;4902615;29;20036;-79
2023/07/05 16:31:43;;;;;;;7.53;2.20;;;23.30;49.80;;;;;;4911537;29;20027;-81
2023/07/05 16:34:09;;;;;;;5.13;2.40;;;23.20;50.80;;;;;;4919701;29;20748;-77
2023/07/05 16:36:35;;;;;;;8.00;2.53;;;23.10;50.80;;;;;;4917384;29;20035;-80
2023/07/05 16:39:00;;;;;;;6.55;3.28;;;23.00;50.70;;;;;;4903773;29;20035;-79
2023/07/05 16:41:27;;;;;;;5.13;2.72;;;22.90;51.00;;;;;;4902309;29;20028;-80
2023/07/05 16:43:54;;;;;;;7.72;2.70;;;22.80;50.70;;;;;;4902715;29;20033;-84
2023/07/05 16:46:22;;;;;;;8.65;2.45;;;22.70;51.60;;;;;;4886514;29;20385;-80
2023/07/05 16:48:47;;;;;;;5.43;2.17;;;22.70;51.40;;;;;;4885117;29;20033;-79
2023/07/05 16:51:13;;;;;;;6.82;2.25;;;22.60;51.70;;;;;;4900949;29;20035;-79
2023/07/05 16:53:40;;;;;;;7.60;2.67;;;22.60;52.40;;;;;;4884938;29;20091;-79
2023/07/05 16:56:08;;;;;;;6.63;2.75;;;22.40;52.70;;;;;;4910954;29;20059;-81
2023/07/05 16:58:34;;;;;;;6.32;2.70;;;22.40;54.10;;;;;;4903693;29;20032;-82
2023/07/05 17:01:05;;;;;;;6.45;2.65;;;22.30;55.70;;;;;;4911441;29;20396;-84
2023/07/05 17:03:33;;;;;;;7.10;2.80;;;22.30;56.20;;;;;;4909970;29;20032;-82
2023/07/05 17:06:00;;;;;;;5.65;2.67;;;22.10;56.00;;;;;;4898976;29;20032;-82
2023/07/05 17:08:26;;;;;;;6.35;2.97;;;21.90;56.30;;;;;;4904705;29;20042;-82
2023/07/05 17:10:56;;;;;;;6.18;2.47;;;22.00;57.20;;;;;;4894503;29;20677;-81
2023/07/05 17:13:22;;;;;;;5.05;2.47;;;22.00;57.00;;;;;;4884591;29;20036;-82
2023/07/05 17:15:48;;;;;;;7.75;2.78;;;22.00;57.20;;;;;;4895265;29;20045;-81
2023/07/05 17:18:14;;;;;;;7.55;3.20;;;22.10;57.80;;;;;;4902499;29;20028;-82
2023/07/05 17:20:54;;;;;;;5.78;2.72;;;22.20;57.60;;;;;;4901852;29;20029;-82
2023/07/05 17:23:20;;;;;;;8.65;2.67;;;22.40;57.50;;;;;;4897106;29;20032;-82
2023/07/05 17:25:53;;;;;;;5.82;2.80;;;22.50;57.20;;;;;;4901862;29;20123;-81
2023/07/05 17:28:19;;;;;;;4.65;2.50;;;22.60;56.10;;;;;;4899217;29;20040;-81
2023/07/05 17:30:44;;;;;;;6.45;2.80;;;22.80;55.50;;;;;;4901314;29;20032;-82
2023/07/05 17:33:10;;;;;;;5.22;2.00;;;22.70;55.50;;;;;;4919028;29;20040;-82
2023/07/05 17:35:36;;;;;;;7.78;2.60;;;22.80;55.70;;;;;;4899020;29;20036;-81
2023/07/05 17:38:02;;;;;;;6.07;2.17;;;22.70;55.60;;;;;;4901008;29;20052;-82
2023/07/05 17:40:28;;;;;;;7.68;2.40;;;22.70;55.20;;;;;;4900718;29;20682;-82
2023/07/05 17:42:53;;;;;;;5.85;2.58;;;22.60;55.00;;;;;;4902931;29;20488;-81
2023/07/05 17:45:19;;;;;;;5.15;2.33;;;22.50;55.70;;;;;;4919872;29;20067;-82
2023/07/05 17:47:45;;;;;;;6.50;2.63;;;22.40;55.30;;;;;;4901532;29;20037;-82
2023/07/05 17:50:11;;;;;;;6.53;2.65;;;22.40;54.70;;;;;;4900992;29;20029;-81
2023/07/05 17:52:37;;;;;;;4.97;2.63;;;22.30;55.70;;;;;;4900691;29;20075;-81
2023/07/05 17:55:04;;;;;;;4.97;2.40;;;22.30;55.50;;;;;;4900769;29;20033;-81
2023/07/05 17:57:30;;;;;;;7.32;2.47;;;22.20;56.30;;;;;;4900789;29;20024;-81
2023/07/05 17:59:57;;;;;;;5.43;2.70;;;22.20;57.00;;;;;;4900255;29;20017;-81
2023/07/05 18:02:22;;;;;;;6.38;2.55;;;22.10;57.60;;;;;;4884046;29;20164;-79
2023/07/05 18:04:48;;;;;;;6.90;2.50;;;22.10;57.80;;;;;;4918981;29;20056;-80
2023/07/05 18:07:14;;;;;;;3.85;2.30;;;22.00;58.40;;;;;;4922066;29;20043;-80
2023/07/05 18:09:39;;;;;;;6.38;2.65;;;22.00;59.00;;;;;;4908564;29;20028;-80
2023/07/05 18:12:06;;;;;;;6.18;2.70;;;22.00;59.00;;;;;;4902580;29;20436;-81
2023/07/05 18:14:31;;;;;;;5.53;2.50;;;21.90;59.20;;;;;;4902605;29;20565;-81
2023/07/05 18:16:57;;;;;;;4.45;2.60;;;22.00;59.30;;;;;;4914089;29;20156;-81
2023/07/05 18:19:24;;;;;;;4.43;2.42;;;21.90;59.10;;;;;;4883295;29;20021;-81
2023/07/05 18:21:50;;;;;;;7.50;3.10;;;22.00;58.70;;;;;;4883444;29;20033;-81
2023/07/05 18:24:15;;;;;;;6.50;2.40;;;22.00;58.80;;;;;;4900126;29;20511;-81
2023/07/05 18:26:41;;;;;;;5.13;2.25;;;22.00;59.00;;;;;;4900316;29;20484;-81
2023/07/05 18:29:07;;;;;;;6.10;2.28;;;22.00;58.20;;;;;;4902111;29;20059;-81
2023/07/05 18:31:36;;;;;;;6.40;1.90;;;21.90;58.30;;;;;;4900858;29;20028;-81
2023/07/05 18:34:02;;;;;;;6.28;2.30;;;21.90;58.70;;;;;;4918658;29;20033;-80
2023/07/05 18:36:30;;;;;;;4.95;2.10;;;21.80;58.10;;;;;;4902103;29;20059;-81
2023/07/05 18:38:57;;;;;;;4.70;2.13;;;21.70;58.50;;;;;;4909618;29;20020;-80
2023/07/05 18:41:23;;;;;;;5.53;2.10;;;21.60;58.60;;;;;;4886256;29;20029;-81
2023/07/05 18:43:48;;;;;;;6.65;1.70;;;21.60;58.40;;;;;;4900336;29;20076;-80
2023/07/05 18:46:14;;;;;;;5.00;1.95;;;21.50;58.70;;;;;;4883601;29;20040;-81
2023/07/05 18:48:41;;;;;;;5.32;1.63;;;21.50;58.80;;;;;;4891409;29;20052;-81
2023/07/05 18:51:08;;;;;;;5.28;1.63;;;21.50;58.80;;;;;;4883802;29;20040;-80
2023/07/05 18:53:34;;;;;;;4.43;2.25;;;21.30;58.80;;;;;;4900039;29;20037;-81
2023/07/05 18:56:06;;;;;;;6.10;2.00;;;21.20;59.20;;;;;;4900173;29;20036;-80
2023/07/05 18:58:34;;;;;;;4.28;1.58;;;21.20;59.30;;;;;;4900356;29;20065;-80
2023/07/05 19:01:21;;;;;;;8.05;2.05;;;21.20;59.20;;;;;;4894242;29;20043;-81
2023/07/05 19:03:49;;;;;;;6.97;1.85;;;21.20;59.10;;;;;;4901517;29;20020;-79
2023/07/05 19:06:19;;;;;;;6.28;1.98;;;21.20;59.20;;;;;;4901296;29;20036;-79
2023/07/05 19:08:47;;;;;;;8.98;2.40;;;21.20;59.40;;;;;;4912218;29;20145;-79
2023/07/05 19:11:16;;;;;;;6.22;1.67;;;21.10;58.90;;;;;;4900165;29;20056;-80
2023/07/05 19:13:43;;;;;;;4.82;1.48;;;21.10;58.50;;;;;;4882889;29;20037;-80
2023/07/05 19:16:11;;;;;;;6.50;1.90;;;21.10;58.70;;;;;;4899656;29;20583;-80
2023/07/05 19:18:37;;;;;;;5.55;1.98;;;21.00;59.00;;;;;;4912642;29;20124;-80
2023/07/05 19:21:04;;;;;;;4.75;1.65;;;21.00;59.10;;;;;;4899951;29;20032;-80
2023/07/05 19:23:32;;;;;;;7.22;1.85;;;21.00;59.10;;;;;;4883139;29;20059;-80
2023/07/05 19:26:00;;;;;;;5.15;1.65;;;20.90;59.50;;;;;;4899759;29;20032;-80
2023/07/05 19:28:27;;;;;;;4.80;1.63;;;20.90;59.50;;;;;;4883090;29;20029;-81
2023/07/05 19:30:55;;;;;;;4.75;1.70;;;20.80;59.50;;;;;;4882973;29;20044;-81
2023/07/05 19:33:24;;;;;;;6.72;1.88;;;20.80;59.70;;;;;;4915193;29;20024;-84
2023/07/05 19:35:53;;;;;;;5.55;1.70;;;20.70;60.10;;;;;;4900014;29;20190;-80
2023/07/05 19:38:24;;;;;;;4.75;1.85;;;20.60;60.20;;;;;;4900579;29;20028;-79
2023/07/05 19:40:59;;;;;;;4.68;1.77;;;20.40;60.70;;;;;;4912676;29;20397;-85
2023/07/05 19:43:24;;;;;;;5.22;1.73;;;20.40;60.90;;;;;;4897521;29;20088;-79
2023/07/05 19:45:51;;;;;;;4.88;1.73;;;20.30;61.10;;;;;;4886335;29;20036;-81
2023/07/05 19:48:20;;;;;;;4.35;1.80;;;20.20;61.50;;;;;;4917112;29;20028;-84
2023/07/05 19:50:46;;;;;;;6.68;1.95;;;20.10;61.80;;;;;;4919889;29;20398;-81
2023/07/05 19:53:14;;;;;;;8.68;1.70;;;20.00;62.00;;;;;;4920188;29;20107;-84
2023/07/05 19:55:45;;;;;;;5.60;2.13;;;19.90;62.50;;;;;;4906254;29;20084;-79
2023/07/05 19:58:11;;;;;;;6.95;1.73;;;19.80;62.80;;;;;;4903172;29;20036;-79
2023/07/05 20:00:38;;;;;;;6.03;1.80;;;19.80;63.00;;;;;;4892603;29;20032;-79
2023/07/05 20:03:05;;;;;;;6.15;1.70;;;19.80;63.10;;;;;;4916744;29;20036;-80
2023/07/05 20:05:32;;;;;;;5.85;2.00;;;19.70;63.10;;;;;;4916656;29;20039;-78
2023/07/05 20:07:57;;;;;;;8.23;1.90;;;19.70;63.30;;;;;;4919388;29;20038;-82
2023/07/05 20:10:23;;;;;;;5.63;1.63;;;19.60;63.40;;;;;;4914287;29;20399;-79
2023/07/05 20:12:49;;;;;;;5.22;1.60;;;19.60;63.50;;;;;;4899580;29;20139;-76